sensor_id;sensor_type;location;lat;lon;timestamp;temperature;humidity
21602;DHT22;10963;50.934;4.668;2023-04-01T00:01:04;10.90;99.90
21602;DHT22;10963;50.934;4.668;2023-04-01T00:03:31;10.80;99.90
21602;DHT22;10963;50.934;4.668;2023-04-01T00:05:59;10.80;99.90
21602;DHT22;10963;50.934;4.668;2023-04-01T00:08:26;10.70;99.90
21602;DHT22;10963;50.934;4.668;2023-04-01T00:10:54;10.70;99.90
21602;DHT22;10963;50.934;4.668;2023-04-01T00:13:23;10.80;99.90
21602;DHT22;10963;50.934;4.668;2023-04-01T00:15:51;10.70;99.90
21602;DHT22;10963;50.934;4.668;2023-04-01T00:18:17;10.80;99.90
21602;DHT22;10963;50.934;4.668;2023-04-01T00:20:48;10.80;99.90
21602;DHT22;10963;50.934;4.668;2023-04-01T00:23:14;10.80;99.90
21602;DHT22;10963;50.934;4.668;2023-04-01T00:25:44;10.80;99.90
21602;DHT22;10963;50.934;4.668;2023-04-01T00:28:10;10.80;99.90
21602;DHT22;10963;50.934;4.668;2023-04-01T00:30:39;10.90;99.90
21602;DHT22;10963;50.934;4.668;2023-04-01T00:33:07;10.90;99.90
21602;DHT22;10963;50.934;4.668;2023-04-01T00:35:35;11.00;99.90
21602;DHT22;10963;50.934;4.668;2023-04-01T00:38:03;11.00;99.90
21602;DHT22;10963;50.934;4.668;2023-04-01T00:40:31;11.00;99.90
21602;DHT22;10963;50.934;4.668;2023-04-01T00:43:00;11.10;99.90
21602;DHT22;10963;50.934;4.668;2023-04-01T00:45:27;11.10;99.90
21602;DHT22;10963;50.934;4.668;2023-04-01T00:47:57;11.10;99.90
21602;DHT22;10963;50.934;4.668;2023-04-01T00:50:25;11.20;99.90
21602;DHT22;10963;50.934;4.668;2023-04-01T00:52:52;11.10;99.90
21602;DHT22;10963;50.934;4.668;2023-04-01T00:55:19;11.20;99.90
21602;DHT22;10963;50.934;4.668;2023-04-01T00:57:48;11.30;99.90
21602;DHT22;10963;50.934;4.668;2023-04-01T01:00:16;11.30;99.90
21602;DHT22;10963;50.934;4.668;2023-04-01T01:02:45;11.30;99.90
21602;DHT22;10963;50.934;4.668;2023-04-01T01:05:16;11.20;99.90
21602;DHT22;10963;50.934;4.668;2023-04-01T01:10:30;11.20;99.90
21602;DHT22;10963;50.934;4.668;2023-04-01T01:13:10;11.20;99.90
21602;DHT22;10963;50.934;4.668;2023-04-01T01:23:41;11.10;99.90
21602;DHT22;10963;50.934;4.668;2023-04-01T01:26:37;11.10;99.90
21602;DHT22;10963;50.934;4.668;2023-04-01T01:37:17;11.10;99.90
21602;DHT22;10963;50.934;4.668;2023-04-01T01:39:54;11.00;99.90
21602;DHT22;10963;50.934;4.668;2023-04-01T01:42:23;11.10;99.90
21602;DHT22;10963;50.934;4.668;2023-04-01T01:44:52;11.10;99.90
21602;DHT22;10963;50.934;4.668;2023-04-01T01:47:19;11.10;99.90
21602;DHT22;10963;50.934;4.668;2023-04-01T01:49:53;11.20;99.90
21602;DHT22;10963;50.934;4.668;2023-04-01T01:52:22;11.10;99.90
21602;DHT22;10963;50.934;4.668;2023-04-01T01:54:53;11.30;99.90
21602;DHT22;10963;50.934;4.668;2023-04-01T01:57:26;11.30;99.90
21602;DHT22;10963;50.934;4.668;2023-04-01T02:00:00;11.30;99.90
21602;DHT22;10963;50.934;4.668;2023-04-01T02:02:28;11.30;99.90
21602;DHT22;10963;50.934;4.668;2023-04-01T02:04:57;11.30;99.90
21602;DHT22;10963;50.934;4.668;2023-04-01T02:07:33;11.30;99.90
21602;DHT22;10963;50.934;4.668;2023-04-01T02:10:01;11.20;99.90
21602;DHT22;10963;50.934;4.668;2023-04-01T02:12:28;11.20;99.90
21602;DHT22;10963;50.934;4.668;2023-04-01T02:15:03;11.20;99.90
21602;DHT22;10963;50.934;4.668;2023-04-01T02:17:31;11.30;99.90
21602;DHT22;10963;50.934;4.668;2023-04-01T02:20:01;11.30;99.90
21602;DHT22;10963;50.934;4.668;2023-04-01T02:22:33;11.20;99.90
21602;DHT22;10963;50.934;4.668;2023-04-01T02:25:07;11.20;99.90
21602;DHT22;10963;50.934;4.668;2023-04-01T02:27:33;11.30;99.90
21602;DHT22;10963;50.934;4.668;2023-04-01T02:30:01;11.30;99.90
21602;DHT22;10963;50.934;4.668;2023-04-01T02:32:30;11.30;99.90
21602;DHT22;10963;50.934;4.668;2023-04-01T02:34:57;11.40;99.90
21602;DHT22;10963;50.934;4.668;2023-04-01T02:37:24;11.40;99.90
21602;DHT22;10963;50.934;4.668;2023-04-01T02:39:52;11.30;99.90
21602;DHT22;10963;50.934;4.668;2023-04-01T02:42:18;11.30;99.90
21602;DHT22;10963;50.934;4.668;2023-04-01T02:44:43;11.30;99.90
21602;DHT22;10963;50.934;4.668;2023-04-01T02:47:09;11.20;99.90
21602;DHT22;10963;50.934;4.668;2023-04-01T02:49:35;11.10;99.90
21602;DHT22;10963;50.934;4.668;2023-04-01T02:52:01;11.10;99.90
21602;DHT22;10963;50.934;4.668;2023-04-01T02:54:26;11.20;99.90
21602;DHT22;10963;50.934;4.668;2023-04-01T02:56:52;11.40;99.90
21602;DHT22;10963;50.934;4.668;2023-04-01T02:59:18;11.40;99.90
21602;DHT22;10963;50.934;4.668;2023-04-01T03:01:43;11.30;99.90
21602;DHT22;10963;50.934;4.668;2023-04-01T03:04:09;11.30;99.90
21602;DHT22;10963;50.934;4.668;2023-04-01T03:06:35;11.20;99.90
21602;DHT22;10963;50.934;4.668;2023-04-01T03:09:01;11.00;99.90
21602;DHT22;10963;50.934;4.668;2023-04-01T03:11:29;11.00;99.90
21602;DHT22;10963;50.934;4.668;2023-04-01T03:13:55;10.90;99.90
21602;DHT22;10963;50.934;4.668;2023-04-01T03:16:21;10.80;99.90
21602;DHT22;10963;50.934;4.668;2023-04-01T03:18:46;11.00;99.90
21602;DHT22;10963;50.934;4.668;2023-04-01T03:21:20;11.00;99.90
21602;DHT22;10963;50.934;4.668;2023-04-01T03:23:48;11.10;99.90
21602;DHT22;10963;50.934;4.668;2023-04-01T03:26:16;11.00;99.90
21602;DHT22;10963;50.934;4.668;2023-04-01T03:28:42;10.90;99.90
21602;DHT22;10963;50.934;4.668;2023-04-01T03:31:08;11.00;99.90
21602;DHT22;10963;50.934;4.668;2023-04-01T03:33:34;11.00;99.90
21602;DHT22;10963;50.934;4.668;2023-04-01T03:36:00;10.90;99.90
21602;DHT22;10963;50.934;4.668;2023-04-01T03:38:28;10.90;99.90
21602;DHT22;10963;50.934;4.668;2023-04-01T03:40:56;10.90;99.90
21602;DHT22;10963;50.934;4.668;2023-04-01T03:43:22;10.90;99.90
21602;DHT22;10963;50.934;4.668;2023-04-01T03:45:50;11.00;99.90
21602;DHT22;10963;50.934;4.668;2023-04-01T03:48:16;10.90;99.90
21602;DHT22;10963;50.934;4.668;2023-04-01T03:50:42;10.80;99.90
21602;DHT22;10963;50.934;4.668;2023-04-01T03:53:08;10.80;99.90
21602;DHT22;10963;50.934;4.668;2023-04-01T03:55:37;10.80;99.90
21602;DHT22;10963;50.934;4.668;2023-04-01T03:58:05;10.90;99.90
21602;DHT22;10963;50.934;4.668;2023-04-01T04:00:31;11.00;99.90
21602;DHT22;10963;50.934;4.668;2023-04-01T04:02:57;10.90;99.90
21602;DHT22;10963;50.934;4.668;2023-04-01T04:05:26;10.90;99.90
21602;DHT22;10963;50.934;4.668;2023-04-01T04:07:53;10.90;99.90
21602;DHT22;10963;50.934;4.668;2023-04-01T04:10:21;11.00;99.90
21602;DHT22;10963;50.934;4.668;2023-04-01T04:12:53;11.00;99.90
21602;DHT22;10963;50.934;4.668;2023-04-01T04:15:19;11.00;99.90
21602;DHT22;10963;50.934;4.668;2023-04-01T04:17:46;11.00;99.90
21602;DHT22;10963;50.934;4.668;2023-04-01T04:20:12;10.90;99.90
21602;DHT22;10963;50.934;4.668;2023-04-01T04:22:38;10.90;99.90
21602;DHT22;10963;50.934;4.668;2023-04-01T04:25:04;10.80;99.90
21602;DHT22;10963;50.934;4.668;2023-04-01T04:27:30;10.80;99.90
21602;DHT22;10963;50.934;4.668;2023-04-01T04:29:58;10.90;99.90
21602;DHT22;10963;50.934;4.668;2023-04-01T04:32:24;10.80;99.90
21602;DHT22;10963;50.934;4.668;2023-04-01T04:34:52;10.90;99.90
21602;DHT22;10963;50.934;4.668;2023-04-01T04:37:20;11.00;99.90
21602;DHT22;10963;50.934;4.668;2023-04-01T04:39:46;11.00;99.90
21602;DHT22;10963;50.934;4.668;2023-04-01T04:42:14;10.90;99.90
21602;DHT22;10963;50.934;4.668;2023-04-01T04:44:39;10.90;99.90
21602;DHT22;10963;50.934;4.668;2023-04-01T04:47:07;10.80;99.90
21602;DHT22;10963;50.934;4.668;2023-04-01T04:49:33;10.90;99.90
21602;DHT22;10963;50.934;4.668;2023-04-01T04:51:59;10.90;99.90
21602;DHT22;10963;50.934;4.668;2023-04-01T04:54:27;10.90;99.90
21602;DHT22;10963;50.934;4.668;2023-04-01T04:56:53;10.80;99.90
21602;DHT22;10963;50.934;4.668;2023-04-01T04:59:19;10.80;99.90
21602;DHT22;10963;50.934;4.668;2023-04-01T05:01:49;10.80;99.90
21602;DHT22;10963;50.934;4.668;2023-04-01T05:04:17;10.80;99.90
21602;DHT22;10963;50.934;4.668;2023-04-01T05:06:43;10.80;99.90
21602;DHT22;10963;50.934;4.668;2023-04-01T05:09:10;10.80;99.90
21602;DHT22;10963;50.934;4.668;2023-04-01T05:11:36;10.70;99.90
21602;DHT22;10963;50.934;4.668;2023-04-01T05:14:04;10.90;99.90
21602;DHT22;10963;50.934;4.668;2023-04-01T05:16:29;10.90;99.90
21602;DHT22;10963;50.934;4.668;2023-04-01T05:18:56;11.10;99.90
21602;DHT22;10963;50.934;4.668;2023-04-01T05:21:24;11.10;99.90
21602;DHT22;10963;50.934;4.668;2023-04-01T05:23:50;11.00;99.90
21602;DHT22;10963;50.934;4.668;2023-04-01T05:26:16;11.00;99.90
21602;DHT22;10963;50.934;4.668;2023-04-01T05:28:42;11.00;99.90
21602;DHT22;10963;50.934;4.668;2023-04-01T05:31:08;10.80;99.90
21602;DHT22;10963;50.934;4.668;2023-04-01T05:33:34;10.80;99.90
21602;DHT22;10963;50.934;4.668;2023-04-01T05:36:17;10.80;99.90
21602;DHT22;10963;50.934;4.668;2023-04-01T05:38:43;10.80;99.90
21602;DHT22;10963;50.934;4.668;2023-04-01T05:41:11;10.80;99.90
21602;DHT22;10963;50.934;4.668;2023-04-01T05:43:39;10.90;99.90
21602;DHT22;10963;50.934;4.668;2023-04-01T05:46:05;10.90;99.90
21602;DHT22;10963;50.934;4.668;2023-04-01T05:48:33;11.00;99.90
21602;DHT22;10963;50.934;4.668;2023-04-01T05:51:00;10.90;99.90
21602;DHT22;10963;50.934;4.668;2023-04-01T05:53:26;10.90;99.90
21602;DHT22;10963;50.934;4.668;2023-04-01T05:55:54;10.90;99.90
21602;DHT22;10963;50.934;4.668;2023-04-01T05:58:20;11.00;99.90
21602;DHT22;10963;50.934;4.668;2023-04-01T06:00:45;11.00;99.90
21602;DHT22;10963;50.934;4.668;2023-04-01T06:03:14;11.00;99.90
21602;DHT22;10963;50.934;4.668;2023-04-01T06:05:42;10.90;99.90
21602;DHT22;10963;50.934;4.668;2023-04-01T06:08:16;10.80;99.90
21602;DHT22;10963;50.934;4.668;2023-04-01T06:16:08;10.70;99.90
21602;DHT22;10963;50.934;4.668;2023-04-01T06:19:07;10.90;99.90
21602;DHT22;10963;50.934;4.668;2023-04-01T06:35:48;10.90;99.90
21602;DHT22;10963;50.934;4.668;2023-04-01T06:46:48;11.00;99.90
21602;DHT22;10963;50.934;4.668;2023-04-01T06:57:45;11.00;99.90
21602;DHT22;10963;50.934;4.668;2023-04-01T07:00:31;11.00;99.90
21602;DHT22;10963;50.934;4.668;2023-04-01T07:05:44;11.00;99.90
21602;DHT22;10963;50.934;4.668;2023-04-01T07:08:20;11.00;99.90
21602;DHT22;10963;50.934;4.668;2023-04-01T07:10:48;10.90;99.90
21602;DHT22;10963;50.934;4.668;2023-04-01T07:21:40;10.80;99.90
21602;DHT22;10963;50.934;4.668;2023-04-01T07:24:16;10.80;99.90
21602;DHT22;10963;50.934;4.668;2023-04-01T07:26:43;10.70;99.90
21602;DHT22;10963;50.934;4.668;2023-04-01T07:29:12;10.80;99.90
21602;DHT22;10963;50.934;4.668;2023-04-01T07:34:26;10.90;99.90
21602;DHT22;10963;50.934;4.668;2023-04-01T07:37:12;10.90;99.90
21602;DHT22;10963;50.934;4.668;2023-04-01T07:40:27;10.90;99.90
21602;DHT22;10963;50.934;4.668;2023-04-01T07:48:38;11.00;99.90
21602;DHT22;10963;50.934;4.668;2023-04-01T07:54:26;10.70;99.90
21602;DHT22;10963;50.934;4.668;2023-04-01T07:59:35;10.90;99.90
21602;DHT22;10963;50.934;4.668;2023-04-01T08:02:20;11.00;99.90
21602;DHT22;10963;50.934;4.668;2023-04-01T08:07:20;11.30;99.90
21602;DHT22;10963;50.934;4.668;2023-04-01T08:10:43;11.40;99.90
21602;DHT22;10963;50.934;4.668;2023-04-01T08:18:29;11.30;99.90
21602;DHT22;10963;50.934;4.668;2023-04-01T08:21:05;11.30;99.90
21602;DHT22;10963;50.934;4.668;2023-04-01T08:23:38;11.40;99.90
21602;DHT22;10963;50.934;4.668;2023-04-01T08:33:56;11.70;99.90
21602;DHT22;10963;50.934;4.668;2023-04-01T08:36:32;11.70;99.90
21602;DHT22;10963;50.934;4.668;2023-04-01T08:39:18;11.60;99.90
21602;DHT22;10963;50.934;4.668;2023-04-01T08:41:53;11.70;99.90
21602;DHT22;10963;50.934;4.668;2023-04-01T08:44:50;11.70;99.90
21602;DHT22;10963;50.934;4.668;2023-04-01T08:55:32;11.40;99.90
21602;DHT22;10963;50.934;4.668;2023-04-01T09:00:58;11.50;99.90
21602;DHT22;10963;50.934;4.668;2023-04-01T09:09:29;11.80;99.90
21602;DHT22;10963;50.934;4.668;2023-04-01T09:23:40;12.00;99.90
21602;DHT22;10963;50.934;4.668;2023-04-01T09:42:39;12.20;99.90
21602;DHT22;10963;50.934;4.668;2023-04-01T09:58:42;12.20;99.90
21602;DHT22;10963;50.934;4.668;2023-04-01T10:10:34;12.20;99.90
21602;DHT22;10963;50.934;4.668;2023-04-01T10:13:30;12.20;99.90
21602;DHT22;10963;50.934;4.668;2023-04-01T10:24:05;12.50;99.90
21602;DHT22;10963;50.934;4.668;2023-04-01T10:40:00;13.10;99.90
21602;DHT22;10963;50.934;4.668;2023-04-01T10:51:21;13.40;99.90
21602;DHT22;10963;50.934;4.668;2023-04-01T10:56:42;13.40;99.90
21602;DHT22;10963;50.934;4.668;2023-04-01T11:11:15;13.20;99.90
21602;DHT22;10963;50.934;4.668;2023-04-01T11:28:09;12.80;99.90
21602;DHT22;10963;50.934;4.668;2023-04-01T11:33:54;12.60;99.90
21602;DHT22;10963;50.934;4.668;2023-04-01T11:42:10;13.00;99.90
21602;DHT22;10963;50.934;4.668;2023-04-01T11:44:56;12.90;99.90
21602;DHT22;10963;50.934;4.668;2023-04-01T11:50:10;12.80;99.90
21602;DHT22;10963;50.934;4.668;2023-04-01T11:53:02;12.80;99.90
21602;DHT22;10963;50.934;4.668;2023-04-01T11:55:51;12.90;99.90
21602;DHT22;10963;50.934;4.668;2023-04-01T12:06:48;13.30;99.90
21602;DHT22;10963;50.934;4.668;2023-04-01T12:12:32;13.50;99.90
21602;DHT22;10963;50.934;4.668;2023-04-01T12:15:23;13.60;99.90
21602;DHT22;10963;50.934;4.668;2023-04-01T12:25:45;13.60;99.90
21602;DHT22;10963;50.934;4.668;2023-04-01T12:29:17;13.60;99.90
21602;DHT22;10963;50.934;4.668;2023-04-01T12:34:28;13.50;99.90
21602;DHT22;10963;50.934;4.668;2023-04-01T12:37:25;13.30;99.90
21602;DHT22;10963;50.934;4.668;2023-04-01T13:02:55;12.50;99.90
21602;DHT22;10963;50.934;4.668;2023-04-01T13:08:06;12.70;99.90
21602;DHT22;10963;50.934;4.668;2023-04-01T13:10:51;12.90;99.90
21602;DHT22;10963;50.934;4.668;2023-04-01T13:13:28;12.90;99.90
21602;DHT22;10963;50.934;4.668;2023-04-01T13:19:03;13.00;99.90
21602;DHT22;10963;50.934;4.668;2023-04-01T13:21:47;13.10;99.90
21602;DHT22;10963;50.934;4.668;2023-04-01T13:24:45;13.20;99.90
21602;DHT22;10963;50.934;4.668;2023-04-01T13:27:29;13.00;99.90
21602;DHT22;10963;50.934;4.668;2023-04-01T13:35:13;12.90;99.90
21602;DHT22;10963;50.934;4.668;2023-04-01T13:40:41;13.00;99.90
21602;DHT22;10963;50.934;4.668;2023-04-01T13:43:17;13.10;99.90
21602;DHT22;10963;50.934;4.668;2023-04-01T13:51:33;12.90;99.90
21602;DHT22;10963;50.934;4.668;2023-04-01T13:54:26;12.90;99.90
21602;DHT22;10963;50.934;4.668;2023-04-01T14:05:47;12.90;99.90
21602;DHT22;10963;50.934;4.668;2023-04-01T14:11:25;12.70;99.90
21602;DHT22;10963;50.934;4.668;2023-04-01T14:14:23;12.70;99.90
21602;DHT22;10963;50.934;4.668;2023-04-01T14:26:03;12.80;99.90
21602;DHT22;10963;50.934;4.668;2023-04-01T14:50:46;13.40;99.90
21602;DHT22;10963;50.934;4.668;2023-04-01T14:58:23;13.30;99.90
21602;DHT22;10963;50.934;4.668;2023-04-01T15:01:10;13.20;99.90
21602;DHT22;10963;50.934;4.668;2023-04-01T15:03:55;13.30;99.90
21602;DHT22;10963;50.934;4.668;2023-04-01T15:06:31;13.20;99.90
21602;DHT22;10963;50.934;4.668;2023-04-01T15:14:39;12.80;99.90
21602;DHT22;10963;50.934;4.668;2023-04-01T15:27:51;12.50;99.90
21602;DHT22;10963;50.934;4.668;2023-04-01T15:30:34;12.40;99.90
21602;DHT22;10963;50.934;4.668;2023-04-01T15:33:13;12.20;99.90
21602;DHT22;10963;50.934;4.668;2023-04-01T15:35:52;12.20;99.90
21602;DHT22;10963;50.934;4.668;2023-04-01T15:41:15;12.10;99.90
21602;DHT22;10963;50.934;4.668;2023-04-01T15:43:43;12.00;99.90
21602;DHT22;10963;50.934;4.668;2023-04-01T16:02:40;12.20;99.90
21602;DHT22;10963;50.934;4.668;2023-04-01T16:08:17;12.30;99.90
21602;DHT22;10963;50.934;4.668;2023-04-01T16:21:37;12.00;99.90
21602;DHT22;10963;50.934;4.668;2023-04-01T16:24:34;11.80;99.90
21602;DHT22;10963;50.934;4.668;2023-04-01T16:27:07;11.80;99.90
21602;DHT22;10963;50.934;4.668;2023-04-01T16:29:53;11.70;99.90
21602;DHT22;10963;50.934;4.668;2023-04-01T16:32:23;11.80;99.90
21602;DHT22;10963;50.934;4.668;2023-04-01T16:37:59;11.60;99.90
21602;DHT22;10963;50.934;4.668;2023-04-01T16:43:42;11.30;99.90
21602;DHT22;10963;50.934;4.668;2023-04-01T17:04:52;11.10;99.90
21602;DHT22;10963;50.934;4.668;2023-04-01T17:24:32;11.00;99.90
21602;DHT22;10963;50.934;4.668;2023-04-01T17:27:22;11.00;99.90
21602;DHT22;10963;50.934;4.668;2023-04-01T17:30:08;11.10;99.90
21602;DHT22;10963;50.934;4.668;2023-04-01T17:32:55;11.00;99.90
21602;DHT22;10963;50.934;4.668;2023-04-01T17:35:30;11.00;99.90
21602;DHT22;10963;50.934;4.668;2023-04-01T17:43:57;11.00;99.90
21602;DHT22;10963;50.934;4.668;2023-04-01T17:49:45;11.10;99.90
21602;DHT22;10963;50.934;4.668;2023-04-01T18:03:22;11.20;99.90
21602;DHT22;10963;50.934;4.668;2023-04-01T18:06:10;11.20;99.90
21602;DHT22;10963;50.934;4.668;2023-04-01T18:09:05;11.20;99.90
21602;DHT22;10963;50.934;4.668;2023-04-01T18:22:45;11.20;99.90
21602;DHT22;10963;50.934;4.668;2023-04-01T18:25:15;11.20;99.90
21602;DHT22;10963;50.934;4.668;2023-04-01T18:30:30;11.20;99.90
21602;DHT22;10963;50.934;4.668;2023-04-01T18:36:26;11.10;99.90
21602;DHT22;10963;50.934;4.668;2023-04-01T18:39:15;11.10;99.90
21602;DHT22;10963;50.934;4.668;2023-04-01T18:42:19;11.00;99.90
21602;DHT22;10963;50.934;4.668;2023-04-01T18:45:09;10.90;99.90
21602;DHT22;10963;50.934;4.668;2023-04-01T18:47:56;10.90;99.90
21602;DHT22;10963;50.934;4.668;2023-04-01T18:51:09;10.80;99.90
21602;DHT22;10963;50.934;4.668;2023-04-01T18:53:38;10.80;99.90
21602;DHT22;10963;50.934;4.668;2023-04-01T18:56:25;10.80;99.90
21602;DHT22;10963;50.934;4.668;2023-04-01T19:01:47;10.90;99.90
21602;DHT22;10963;50.934;4.668;2023-04-01T19:04:39;11.00;99.90
21602;DHT22;10963;50.934;4.668;2023-04-01T19:17:16;10.90;99.90
21602;DHT22;10963;50.934;4.668;2023-04-01T19:25:29;10.70;99.90
21602;DHT22;10963;50.934;4.668;2023-04-01T19:52:45;10.40;99.90
21602;DHT22;10963;50.934;4.668;2023-04-01T19:55:39;10.40;99.90
21602;DHT22;10963;50.934;4.668;2023-04-01T19:58:31;10.40;99.90
21602;DHT22;10963;50.934;4.668;2023-04-01T20:01:03;10.40;99.90
21602;DHT22;10963;50.934;4.668;2023-04-01T20:03:41;10.40;99.90
21602;DHT22;10963;50.934;4.668;2023-04-01T20:06:33;10.50;99.90
21602;DHT22;10963;50.934;4.668;2023-04-01T20:14:49;10.50;99.90
21602;DHT22;10963;50.934;4.668;2023-04-01T20:19:59;10.60;99.90
21602;DHT22;10963;50.934;4.668;2023-04-01T20:25:16;10.60;99.90
21602;DHT22;10963;50.934;4.668;2023-04-01T20:27:54;10.60;99.90
21602;DHT22;10963;50.934;4.668;2023-04-01T20:30:49;10.60;99.90
21602;DHT22;10963;50.934;4.668;2023-04-01T20:52:56;10.60;99.90
21602;DHT22;10963;50.934;4.668;2023-04-01T21:26:06;10.80;99.90
21602;DHT22;10963;50.934;4.668;2023-04-01T21:32:06;10.90;99.90
21602;DHT22;10963;50.934;4.668;2023-04-01T21:34:48;10.80;99.90
21602;DHT22;10963;50.934;4.668;2023-04-01T21:46:19;11.00;99.90
21602;DHT22;10963;50.934;4.668;2023-04-01T21:57:00;10.70;99.90
21602;DHT22;10963;50.934;4.668;2023-04-01T22:08:02;10.40;99.90
21602;DHT22;10963;50.934;4.668;2023-04-01T22:10:54;10.40;99.90
21602;DHT22;10963;50.934;4.668;2023-04-01T22:16:41;10.40;99.90
21602;DHT22;10963;50.934;4.668;2023-04-01T22:22:16;10.30;99.90
21602;DHT22;10963;50.934;4.668;2023-04-01T22:27:42;10.40;99.90
21602;DHT22;10963;50.934;4.668;2023-04-01T22:32:45;10.40;99.90
21602;DHT22;10963;50.934;4.668;2023-04-01T22:43:41;10.30;99.90
21602;DHT22;10963;50.934;4.668;2023-04-01T22:51:47;10.20;99.90
21602;DHT22;10963;50.934;4.668;2023-04-01T22:57:37;10.20;99.90
21602;DHT22;10963;50.934;4.668;2023-04-01T23:05:27;10.10;99.90
21602;DHT22;10963;50.934;4.668;2023-04-01T23:12:49;10.20;99.90
21602;DHT22;10963;50.934;4.668;2023-04-01T23:15:19;10.30;99.90
21602;DHT22;10963;50.934;4.668;2023-04-01T23:38:38;10.00;99.90
21602;DHT22;10963;50.934;4.668;2023-04-01T23:41:06;9.90;99.90
21602;DHT22;10963;50.934;4.668;2023-04-01T23:43:36;10.00;99.90
21602;DHT22;10963;50.934;4.668;2023-04-01T23:46:05;9.80;99.90
21602;DHT22;10963;50.934;4.668;2023-04-01T23:48:38;9.70;99.90
21602;DHT22;10963;50.934;4.668;2023-04-01T23:54:18;9.70;99.90
21602;DHT22;10963;50.934;4.668;2023-04-01T23:56:50;9.50;99.90
21602;DHT22;10963;50.934;4.668;2023-04-01T23:59:22;9.40;99.90
